Time;durP1;ratioP1;P1;durP2;ratioP2;P2;SDS_P1;SDS_P2;PMS_P1;PMS_P2;Temp;Humidity;BMP_temperature;BMP_pressure;BME280_temperature;BME280_humidity;BME280_pressure;Samples;Min_cycle;Max_cycle;Signal;HPM_P1;HPM_P2
2020/12/28 00:02:19;;;;;;;14.63;8.00;;;2.00;99.90;;;;;;5056878;28;20706;-68
2020/12/28 00:04:46;;;;;;;16.77;7.80;;;2.00;99.90;;;;;;5064571;28;20178;-68
2020/12/28 00:07:14;;;;;;;28.90;9.70;;;2.00;99.90;;;;;;5060853;28;20205;-67
2020/12/28 00:09:40;;;;;;;20.15;9.30;;;2.00;99.90;;;;;;5066064;28;20174;-68
2020/12/28 00:12:06;;;;;;;25.33;10.82;;;1.90;99.90;;;;;;5066233;28;20239;-67
2020/12/28 00:14:32;;;;;;;26.35;11.32;;;1.90;99.90;;;;;;5067154;28;20189;-68
2020/12/28 00:16:59;;;;;;;30.50;12.02;;;1.90;99.90;;;;;;5065708;28;20226;-68
2020/12/28 00:19:25;;;;;;;27.02;11.27;;;1.90;99.90;;;;;;5082829;28;20190;-68
2020/12/28 00:21:51;;;;;;;28.52;11.50;;;1.90;99.90;;;;;;5064328;28;20195;-68
2020/12/28 00:24:17;;;;;;;27.98;12.05;;;1.90;99.90;;;;;;5061909;28;20174;-68
2020/12/28 00:26:45;;;;;;;21.58;9.80;;;1.90;99.90;;;;;;5067391;28;20182;-68
2020/12/28 00:29:15;;;;;;;23.95;10.27;;;1.90;99.90;;;;;;5060939;28;20185;-68
2020/12/28 00:31:41;;;;;;;20.23;10.05;;;1.90;99.90;;;;;;5060315;28;20174;-67
2020/12/28 00:34:08;;;;;;;20.67;9.45;;;1.90;99.90;;;;;;5061090;28;20189;-68
2020/12/28 00:36:34;;;;;;;24.67;9.35;;;1.90;99.90;;;;;;5056281;28;20191;-68
2020/12/28 00:39:00;;;;;;;14.90;8.93;;;2.00;99.90;;;;;;5060994;28;20178;-68
2020/12/28 00:41:26;;;;;;;20.20;9.40;;;2.00;99.90;;;;;;5057070;28;20627;-67
2020/12/28 00:43:52;;;;;;;20.70;9.40;;;2.00;99.90;;;;;;5060444;28;20588;-68
2020/12/28 00:46:18;;;;;;;17.08;8.75;;;2.00;99.90;;;;;;5064437;28;20253;-66
2020/12/28 00:48:44;;;;;;;21.52;9.13;;;2.00;99.90;;;;;;5060435;28;20182;-67
2020/12/28 00:51:14;;;;;;;20.35;9.10;;;2.00;99.90;;;;;;5056552;28;20173;-67
2020/12/28 00:53:41;;;;;;;21.15;9.88;;;2.00;99.90;;;;;;5061300;28;20634;-67
2020/12/28 00:56:07;;;;;;;22.65;10.20;;;2.00;99.90;;;;;;5055526;28;20178;-67
2020/12/28 00:58:37;;;;;;;21.23;10.05;;;2.10;99.90;;;;;;5064691;28;20360;-67
2020/12/28 01:01:03;;;;;;;19.83;9.98;;;2.00;99.90;;;;;;5058052;28;20185;-66
2020/12/28 01:03:30;;;;;;;25.35;10.63;;;2.10;99.90;;;;;;5057963;28;20213;-66
2020/12/28 01:05:56;;;;;;;23.33;10.30;;;2.10;99.90;;;;;;5058764;28;20193;-66
2020/12/28 01:08:22;;;;;;;23.52;11.23;;;2.10;99.90;;;;;;5064731;28;20174;-66
2020/12/28 01:10:48;;;;;;;25.25;11.85;;;2.10;99.90;;;;;;5061660;28;20169;-66
2020/12/28 01:13:14;;;;;;;26.48;11.82;;;2.10;99.90;;;;;;5060073;28;20170;-67
2020/12/28 01:15:42;;;;;;;29.90;14.05;;;2.10;99.90;;;;;;5059711;28;20181;-66
2020/12/28 01:18:08;;;;;;;35.58;13.90;;;2.10;99.90;;;;;;5054417;28;20205;-66
2020/12/28 01:20:37;;;;;;;24.20;13.10;;;2.10;99.90;;;;;;5062312;28;20549;-66
2020/12/28 01:23:03;;;;;;;29.25;14.73;;;2.10;99.90;;;;;;5058797;28;20201;-67
2020/12/28 01:25:29;;;;;;;33.65;14.88;;;2.00;99.90;;;;;;5063727;28;20178;-67
2020/12/28 01:27:55;;;;;;;32.97;15.40;;;2.00;99.90;;;;;;5060566;28;20205;-67
2020/12/28 01:30:21;;;;;;;28.52;14.15;;;2.00;99.90;;;;;;5059988;28;20638;-67
2020/12/28 01:32:47;;;;;;;32.67;15.20;;;2.10;99.90;;;;;;5062239;28;20166;-67
2020/12/28 01:35:13;;;;;;;29.55;15.25;;;2.00;99.90;;;;;;5059471;28;20186;-68
2020/12/28 01:37:39;;;;;;;35.35;15.95;;;2.00;99.90;;;;;;5059241;28;20197;-67
2020/12/28 01:40:06;;;;;;;32.58;16.30;;;2.00;99.90;;;;;;5061585;28;20186;-68
2020/12/28 01:42:32;;;;;;;32.97;16.80;;;2.00;99.90;;;;;;5057093;28;20206;-68
2020/12/28 01:44:58;;;;;;;37.83;16.75;;;2.00;99.90;;;;;;5060705;28;20178;-68
2020/12/28 01:47:25;;;;;;;35.05;17.48;;;1.90;99.90;;;;;;5058121;28;20181;-69
2020/12/28 01:49:52;;;;;;;36.53;17.40;;;2.00;99.90;;;;;;5053544;28;20177;-69
2020/12/28 01:52:18;;;;;;;35.17;17.50;;;1.90;99.90;;;;;;5062148;28;20177;-69
2020/12/28 01:54:44;;;;;;;34.85;17.60;;;2.00;99.90;;;;;;5058076;28;20182;-69
2020/12/28 01:57:10;;;;;;;35.45;17.98;;;2.00;99.90;;;;;;5062772;28;20174;-69
2020/12/28 01:59:36;;;;;;;38.63;18.52;;;2.00;99.90;;;;;;5065255;28;20175;-70
2020/12/28 02:02:03;;;;;;;33.15;16.58;;;1.90;99.90;;;;;;5057203;28;20178;-69
2020/12/28 02:04:29;;;;;;;37.75;18.35;;;2.00;99.90;;;;;;5060570;28;20281;-70
2020/12/28 02:06:55;;;;;;;41.75;17.05;;;2.00;99.90;;;;;;5057196;28;20181;-70
2020/12/28 02:09:21;;;;;;;32.35;16.85;;;2.00;99.90;;;;;;5057409;28;20171;-69
2020/12/28 02:11:48;;;;;;;36.38;17.45;;;2.00;99.90;;;;;;5063768;28;20178;-69
2020/12/28 02:14:14;;;;;;;35.38;16.30;;;2.00;99.90;;;;;;5059886;28;20174;-69
2020/12/28 02:16:40;;;;;;;34.85;17.35;;;2.00;99.90;;;;;;5061858;28;20210;-69
2020/12/28 02:19:06;;;;;;;32.80;16.90;;;2.00;99.90;;;;;;5055545;28;20190;-69
2020/12/28 02:21:36;;;;;;;29.52;16.75;;;2.00;99.90;;;;;;5056345;28;20650;-69
2020/12/28 02:24:03;;;;;;;32.17;16.17;;;2.00;99.90;;;;;;5058390;28;20216;-69
2020/12/28 02:26:29;;;;;;;33.95;16.73;;;2.00;99.90;;;;;;5059660;28;20175;-68
2020/12/28 02:28:55;;;;;;;39.90;18.92;;;2.00;99.90;;;;;;5059928;28;20564;-68
2020/12/28 02:31:21;;;;;;;35.92;16.85;;;2.00;99.90;;;;;;5061146;28;20170;-68
2020/12/28 02:33:48;;;;;;;35.33;16.90;;;2.00;99.90;;;;;;5066193;28;20178;-68
2020/12/28 02:36:14;;;;;;;37.15;18.30;;;2.00;99.90;;;;;;5064520;28;20170;-68
2020/12/28 02:38:40;;;;;;;30.38;16.48;;;2.00;99.90;;;;;;5068347;28;20178;-68
2020/12/28 02:41:06;;;;;;;30.52;16.38;;;1.90;99.90;;;;;;5059743;28;20171;-68
2020/12/28 02:43:32;;;;;;;34.35;16.98;;;2.00;99.90;;;;;;5063308;28;20202;-67
2020/12/28 02:45:59;;;;;;;36.15;17.98;;;2.00;99.90;;;;;;5055192;28;20167;-67
2020/12/28 02:48:25;;;;;;;37.20;18.05;;;2.00;99.90;;;;;;5063286;28;20545;-67
2020/12/28 02:50:51;;;;;;;34.70;17.08;;;2.00;99.90;;;;;;5063912;28;20170;-67
2020/12/28 02:53:17;;;;;;;39.95;18.00;;;2.00;99.90;;;;;;5063198;28;20189;-67
2020/12/28 02:55:44;;;;;;;38.10;17.77;;;2.00;99.90;;;;;;5059216;28;20173;-66
2020/12/28 02:58:10;;;;;;;32.03;18.02;;;2.00;99.90;;;;;;5059532;28;20179;-67
2020/12/28 03:00:36;;;;;;;35.35;17.25;;;2.00;99.90;;;;;;5059734;28;20178;-67
2020/12/28 03:03:02;;;;;;;37.88;18.05;;;2.00;99.90;;;;;;5055675;28;20222;-67
2020/12/28 03:05:29;;;;;;;37.38;17.90;;;2.00;99.90;;;;;;5062260;28;20512;-67
2020/12/28 03:07:55;;;;;;;33.22;17.17;;;2.00;99.90;;;;;;5065120;28;20178;-67
2020/12/28 03:10:21;;;;;;;34.75;17.08;;;2.10;99.90;;;;;;5061506;28;20185;-67
2020/12/28 03:12:47;;;;;;;34.10;18.05;;;2.10;99.90;;;;;;5062694;28;20178;-67
2020/12/28 03:15:13;;;;;;;36.38;17.05;;;2.10;99.90;;;;;;5068006;28;20225;-67
2020/12/28 03:17:39;;;;;;;34.67;17.30;;;2.10;99.90;;;;;;5072634;28;20614;-66
2020/12/28 03:20:06;;;;;;;35.90;18.20;;;2.10;99.90;;;;;;5061294;28;20182;-67
2020/12/28 03:22:32;;;;;;;35.08;17.40;;;2.10;99.90;;;;;;5065291;28;20206;-67
2020/12/28 03:24:58;;;;;;;34.13;18.00;;;2.10;99.90;;;;;;5056976;28;20185;-67
2020/12/28 03:27:25;;;;;;;33.95;17.95;;;2.10;99.90;;;;;;5056859;28;20194;-67
2020/12/28 03:29:51;;;;;;;39.80;18.45;;;2.10;99.90;;;;;;5056706;28;20182;-67
2020/12/28 03:32:17;;;;;;;35.40;18.02;;;2.20;99.90;;;;;;5058837;28;20175;-66
2020/12/28 03:34:43;;;;;;;40.30;18.75;;;2.20;99.90;;;;;;5070811;28;20245;-66
2020/12/28 03:37:10;;;;;;;37.72;18.60;;;2.20;99.90;;;;;;5078593;28;20216;-66
2020/12/28 03:39:36;;;;;;;31.95;17.92;;;2.20;99.90;;;;;;5059777;28;20182;-66
2020/12/28 03:42:02;;;;;;;33.08;17.50;;;2.20;99.90;;;;;;5051652;28;20182;-66
2020/12/28 03:44:28;;;;;;;41.50;18.67;;;2.20;99.90;;;;;;5069047;28;20553;-66
2020/12/28 03:46:54;;;;;;;40.25;18.52;;;2.20;99.90;;;;;;5061413;28;20179;-66
2020/12/28 03:49:20;;;;;;;39.00;20.30;;;2.20;99.90;;;;;;5063364;28;20193;-66
2020/12/28 03:51:46;;;;;;;37.25;19.13;;;2.20;99.90;;;;;;5067953;28;20170;-66
2020/12/28 03:54:13;;;;;;;37.75;19.25;;;2.20;99.90;;;;;;5055285;28;20534;-65
2020/12/28 03:56:39;;;;;;;39.58;20.20;;;2.20;99.90;;;;;;5062378;28;20278;-65
2020/12/28 03:59:05;;;;;;;39.70;18.98;;;2.30;99.90;;;;;;5061701;28;20178;-65
2020/12/28 04:01:32;;;;;;;35.17;19.80;;;2.30;99.90;;;;;;5064667;28;20182;-65
2020/12/28 04:03:58;;;;;;;45.28;19.48;;;2.30;99.90;;;;;;5057802;28;20202;-65
2020/12/28 04:06:24;;;;;;;41.58;19.48;;;2.30;99.90;;;;;;5066776;28;20525;-65
2020/12/28 04:08:50;;;;;;;37.97;18.63;;;2.30;99.90;;;;;;5062697;28;20182;-65
2020/12/28 04:11:16;;;;;;;41.20;18.38;;;2.30;99.90;;;;;;5071860;28;20174;-65
2020/12/28 04:13:43;;;;;;;35.40;18.25;;;2.30;99.90;;;;;;5058280;28;20185;-64
2020/12/28 04:16:09;;;;;;;45.35;19.80;;;2.30;99.90;;;;;;5060091;28;20190;-64
2020/12/28 04:18:35;;;;;;;39.70;19.65;;;2.40;99.90;;;;;;5057778;28;20222;-64
2020/12/28 04:21:01;;;;;;;42.28;17.15;;;2.40;99.90;;;;;;5059649;28;20183;-64
2020/12/28 04:23:27;;;;;;;46.50;18.35;;;2.40;99.90;;;;;;5064026;28;20213;-64
2020/12/28 04:25:53;;;;;;;39.97;18.52;;;2.40;99.90;;;;;;5062928;28;20175;-64
2020/12/28 04:28:19;;;;;;;36.90;17.77;;;2.40;99.90;;;;;;5064943;28;20178;-64
2020/12/28 04:30:45;;;;;;;31.70;16.35;;;2.40;99.90;;;;;;5055382;28;20273;-64
2020/12/28 04:33:11;;;;;;;32.42;16.55;;;2.40;99.90;;;;;;5056230;28;20179;-64
2020/12/28 04:35:38;;;;;;;37.13;16.13;;;2.40;99.90;;;;;;5055636;28;20194;-64
2020/12/28 04:38:04;;;;;;;36.97;17.08;;;2.40;99.90;;;;;;5057590;28;20554;-63
2020/12/28 04:40:30;;;;;;;37.17;17.42;;;2.40;99.90;;;;;;5057222;28;20658;-64
2020/12/28 04:42:56;;;;;;;38.13;17.20;;;2.40;99.90;;;;;;5054482;28;20557;-64
2020/12/28 04:45:22;;;;;;;30.67;15.80;;;2.40;99.90;;;;;;5054098;28;20174;-63
2020/12/28 04:47:49;;;;;;;33.42;17.40;;;2.40;99.90;;;;;;5061129;28;20591;-64
2020/12/28 04:50:15;;;;;;;35.47;16.70;;;2.50;99.90;;;;;;5057829;28;20190;-63
2020/12/28 04:52:41;;;;;;;36.08;16.67;;;2.40;99.90;;;;;;5052485;28;20530;-64
2020/12/28 04:55:07;;;;;;;38.22;17.00;;;2.50;99.90;;;;;;5062456;28;20178;-63
2020/12/28 04:57:33;;;;;;;31.95;16.50;;;2.50;99.90;;;;;;5060697;28;20175;-63
2020/12/28 04:59:59;;;;;;;36.28;16.02;;;2.40;99.90;;;;;;5050664;28;20273;-63
2020/12/28 05:02:26;;;;;;;36.47;17.13;;;2.50;99.90;;;;;;5061298;28;20182;-63
2020/12/28 05:04:52;;;;;;;31.50;16.13;;;2.40;99.90;;;;;;5059037;28;20213;-63
2020/12/28 05:07:18;;;;;;;29.17;15.98;;;2.40;99.90;;;;;;5060622;28;20213;-63
2020/12/28 05:09:44;;;;;;;33.28;15.13;;;2.50;99.90;;;;;;5062204;28;20198;-63
2020/12/28 05:12:10;;;;;;;26.83;13.82;;;2.50;99.90;;;;;;5067285;28;20178;-63
2020/12/28 05:14:36;;;;;;;29.38;14.88;;;2.50;99.90;;;;;;5058574;28;20179;-63
2020/12/28 05:17:07;;;;;;;30.88;14.35;;;2.50;99.90;;;;;;5064878;28;20206;-63
2020/12/28 05:19:34;;;;;;;28.50;14.75;;;2.50;99.90;;;;;;5069813;28;20194;-63
2020/12/28 05:22:00;;;;;;;26.42;14.45;;;2.50;99.90;;;;;;5068818;28;20178;-63
2020/12/28 05:24:26;;;;;;;25.98;14.32;;;2.50;99.90;;;;;;5071052;28;20538;-63
2020/12/28 05:26:53;;;;;;;30.55;15.02;;;2.50;99.90;;;;;;5070301;28;20196;-63
2020/12/28 05:29:23;;;;;;;25.23;13.60;;;2.50;99.90;;;;;;5070694;28;20173;-63
2020/12/28 05:31:51;;;;;;;26.58;14.00;;;2.50;99.90;;;;;;5071535;28;20538;-63
2020/12/28 05:34:19;;;;;;;28.25;14.43;;;2.50;99.90;;;;;;5071867;28;20177;-63
2020/12/28 05:36:55;;;;;;;26.33;14.07;;;2.50;99.90;;;;;;5071018;28;20206;-63
2020/12/28 05:39:23;;;;;;;21.00;12.32;;;2.50;99.90;;;;;;5067243;28;20654;-63
2020/12/28 05:41:55;;;;;;;28.20;13.50;;;2.50;99.90;;;;;;5071805;28;20182;-63
2020/12/28 05:44:25;;;;;;;25.70;14.05;;;2.50;99.90;;;;;;5069031;28;20194;-63
2020/12/28 05:47:04;;;;;;;25.15;12.88;;;2.50;99.90;;;;;;5070874;28;20185;-63
2020/12/28 05:49:37;;;;;;;23.90;13.05;;;2.50;99.90;;;;;;5071085;28;20614;-63
2020/12/28 05:52:05;;;;;;;23.50;13.13;;;2.50;99.90;;;;;;5069430;28;20173;-63
2020/12/28 05:54:31;;;;;;;25.23;13.40;;;2.50;99.90;;;;;;5070737;28;20174;-63
2020/12/28 05:56:57;;;;;;;22.15;12.63;;;2.50;99.90;;;;;;5070673;28;20174;-63
2020/12/28 05:59:23;;;;;;;26.80;12.93;;;2.50;99.90;;;;;;5070570;28;20178;-62
2020/12/28 06:01:50;;;;;;;23.13;13.32;;;2.50;99.90;;;;;;5070442;28;20635;-62
2020/12/28 06:04:17;;;;;;;25.20;12.20;;;2.50;99.90;;;;;;5071178;28;20652;-63
2020/12/28 06:06:43;;;;;;;23.65;12.57;;;2.60;99.90;;;;;;5069742;28;20170;-63
2020/12/28 06:09:10;;;;;;;23.70;12.93;;;2.60;99.90;;;;;;5074657;28;20638;-63
2020/12/28 06:11:36;;;;;;;20.50;12.55;;;2.50;99.90;;;;;;5074368;28;20194;-63
2020/12/28 06:14:18;;;;;;;20.95;12.23;;;2.50;99.90;;;;;;5068261;28;20166;-63
2020/12/28 06:16:45;;;;;;;22.88;12.85;;;2.50;99.90;;;;;;5063700;28;20201;-63
2020/12/28 06:19:23;;;;;;;25.27;13.15;;;2.50;99.90;;;;;;5070795;28;20266;-63
2020/12/28 06:21:53;;;;;;;23.05;12.60;;;2.50;99.90;;;;;;5068481;28;20170;-63
2020/12/28 06:24:32;;;;;;;22.90;13.00;;;2.60;99.90;;;;;;5066365;28;20216;-63
2020/12/28 06:27:06;;;;;;;22.83;13.43;;;2.60;99.90;;;;;;5060046;28;20190;-63
2020/12/28 06:29:32;;;;;;;21.88;12.32;;;2.60;99.90;;;;;;5069413;28;20174;-64
2020/12/28 06:32:09;;;;;;;19.52;12.00;;;2.60;99.90;;;;;;5067725;28;20187;-63
2020/12/28 06:34:36;;;;;;;22.75;12.82;;;2.60;99.90;;;;;;5067717;28;20185;-63
2020/12/28 06:37:02;;;;;;;25.58;13.27;;;2.60;99.90;;;;;;5068752;28;20650;-63
2020/12/28 06:39:29;;;;;;;25.77;12.20;;;2.60;99.90;;;;;;5064910;28;20194;-63
2020/12/28 06:42:09;;;;;;;25.13;12.82;;;2.60;99.90;;;;;;5065077;28;20170;-63
2020/12/28 06:44:35;;;;;;;31.33;13.20;;;2.60;99.90;;;;;;5067261;28;20205;-67
2020/12/28 06:47:02;;;;;;;23.67;13.05;;;2.60;99.90;;;;;;5071657;28;20173;-63
2020/12/28 06:49:42;;;;;;;28.58;14.13;;;2.60;99.90;;;;;;5066552;28;20248;-63
2020/12/28 06:52:08;;;;;;;28.52;13.25;;;2.60;99.90;;;;;;5064342;28;20162;-63
2020/12/28 06:54:34;;;;;;;26.27;13.20;;;2.70;99.90;;;;;;5061713;28;20538;-63
2020/12/28 06:57:06;;;;;;;27.95;14.15;;;2.70;99.90;;;;;;5066445;28;20182;-63
2020/12/28 06:59:33;;;;;;;25.73;13.65;;;2.70;99.90;;;;;;5067940;28;20193;-63
2020/12/28 07:01:59;;;;;;;28.17;13.48;;;2.70;99.90;;;;;;5078783;28;20658;-63
2020/12/28 07:04:26;;;;;;;28.83;14.00;;;2.70;99.90;;;;;;5069685;28;20218;-63
2020/12/28 07:07:03;;;;;;;28.00;14.15;;;2.70;99.90;;;;;;5067533;28;20646;-63
2020/12/28 07:09:29;;;;;;;29.50;14.55;;;2.70;99.90;;;;;;5063281;28;20166;-63
2020/12/28 07:11:55;;;;;;;29.48;15.15;;;2.70;99.90;;;;;;5062912;28;20174;-63
2020/12/28 07:14:21;;;;;;;25.92;14.73;;;2.70;99.90;;;;;;5066810;28;20170;-63
2020/12/28 07:16:56;;;;;;;30.45;14.68;;;2.70;99.90;;;;;;5064232;28;20211;-63
2020/12/28 07:19:23;;;;;;;29.77;14.63;;;2.70;99.90;;;;;;5059995;28;20190;-63
2020/12/28 07:21:49;;;;;;;30.17;15.55;;;2.80;99.90;;;;;;5060403;28;20650;-63
2020/12/28 07:24:15;;;;;;;30.42;14.95;;;2.80;99.90;;;;;;5060187;28;20209;-63
2020/12/28 07:26:42;;;;;;;32.25;14.98;;;2.80;99.90;;;;;;5058523;28;20558;-63
2020/12/28 07:29:16;;;;;;;36.78;17.08;;;2.80;99.90;;;;;;5066832;28;20170;-63
2020/12/28 07:31:43;;;;;;;36.78;16.55;;;2.80;99.90;;;;;;5064930;28;20170;-63
2020/12/28 07:34:19;;;;;;;36.63;16.85;;;2.80;99.90;;;;;;5063816;28;20181;-63
2020/12/28 07:36:51;;;;;;;35.75;16.48;;;2.80;99.90;;;;;;5061820;28;20206;-63
2020/12/28 07:39:18;;;;;;;35.08;17.30;;;2.80;99.90;;;;;;5062753;28;20506;-63
2020/12/28 07:41:44;;;;;;;30.35;15.30;;;2.80;99.90;;;;;;5061710;28;20498;-63
2020/12/28 07:44:14;;;;;;;37.28;16.63;;;2.90;99.90;;;;;;5063399;28;20202;-63
2020/12/28 07:47:03;;;;;;;35.83;17.15;;;2.90;99.90;;;;;;5066617;28;20537;-63
2020/12/28 07:49:31;;;;;;;35.08;16.63;;;2.90;99.90;;;;;;5063770;28;20173;-63
2020/12/28 07:52:12;;;;;;;44.35;16.65;;;2.90;99.90;;;;;;5060194;28;20175;-64
2020/12/28 07:54:44;;;;;;;34.45;17.25;;;2.90;99.90;;;;;;5058486;28;20163;-63
2020/12/28 07:57:41;;;;;;;33.28;16.00;;;2.90;99.90;;;;;;5067608;28;20520;-63
2020/12/28 08:00:07;;;;;;;40.40;17.25;;;2.90;99.90;;;;;;5065971;28;20174;-63
2020/12/28 08:02:55;;;;;;;36.30;16.83;;;2.90;99.90;;;;;;5062488;28;20528;-63
2020/12/28 08:05:21;;;;;;;41.45;17.50;;;2.90;99.90;;;;;;5062665;28;20206;-63
2020/12/28 08:07:48;;;;;;;36.78;17.13;;;2.90;99.90;;;;;;5063008;28;20190;-63
2020/12/28 08:10:14;;;;;;;39.25;17.60;;;3.00;99.90;;;;;;5061859;28;20173;-63
2020/12/28 08:12:41;;;;;;;35.20;16.50;;;3.00;99.90;;;;;;5062301;28;20185;-63
2020/12/28 08:15:08;;;;;;;37.45;18.17;;;3.00;99.90;;;;;;5066950;28;20517;-63
2020/12/28 08:17:34;;;;;;;39.47;17.80;;;3.00;99.90;;;;;;5066309;28;20218;-63
2020/12/28 08:20:04;;;;;;;35.90;17.85;;;3.00;99.90;;;;;;5062916;28;20174;-63
2020/12/28 08:22:30;;;;;;;35.90;17.15;;;3.10;99.90;;;;;;5065224;28;20189;-63
2020/12/28 08:25:05;;;;;;;45.25;18.20;;;3.10;99.90;;;;;;5066959;28;20285;-64
2020/12/28 08:27:32;;;;;;;38.88;17.90;;;3.10;99.90;;;;;;5063119;28;20526;-64
2020/12/28 08:29:59;;;;;;;38.53;17.48;;;3.10;99.90;;;;;;5058169;28;20179;-65
2020/12/28 08:32:29;;;;;;;39.08;16.48;;;3.10;99.90;;;;;;5060567;28;20678;-65
2020/12/28 08:34:59;;;;;;;31.02;16.63;;;3.20;99.90;;;;;;5064985;28;20188;-65
2020/12/28 08:37:25;;;;;;;35.25;17.23;;;3.20;99.90;;;;;;5059868;28;20211;-65
2020/12/28 08:39:51;;;;;;;39.72;16.95;;;3.20;99.90;;;;;;5063563;28;20178;-64
2020/12/28 08:42:34;;;;;;;38.05;18.90;;;3.20;99.90;;;;;;5063959;28;20197;-65
2020/12/28 08:45:03;;;;;;;38.63;17.83;;;3.20;99.90;;;;;;5062617;28;20197;-65
2020/12/28 08:47:29;;;;;;;36.83;18.48;;;3.20;99.90;;;;;;5061500;28;20170;-65
2020/12/28 08:49:56;;;;;;;35.35;17.60;;;3.20;99.90;;;;;;5063330;28;20174;-65
2020/12/28 08:52:22;;;;;;;34.83;16.40;;;3.20;99.90;;;;;;5060641;28;20175;-64
2020/12/28 08:54:56;;;;;;;36.53;17.67;;;3.30;99.90;;;;;;5062706;28;20513;-65
2020/12/28 08:57:23;;;;;;;27.30;16.05;;;3.30;99.90;;;;;;5062767;28;20177;-64
2020/12/28 08:59:50;;;;;;;29.65;16.50;;;3.30;99.90;;;;;;5063944;28;20177;-65
2020/12/28 09:02:19;;;;;;;26.60;14.77;;;3.30;99.90;;;;;;5056311;28;20209;-65
2020/12/28 09:04:46;;;;;;;30.98;15.15;;;3.30;99.90;;;;;;5065597;28;20214;-65
2020/12/28 09:07:12;;;;;;;26.58;14.80;;;3.30;99.90;;;;;;5059291;28;20181;-64
2020/12/28 09:09:40;;;;;;;28.15;14.82;;;3.30;99.90;;;;;;5059158;28;20181;-64
2020/12/28 09:12:06;;;;;;;27.98;13.77;;;3.40;99.90;;;;;;5059798;28;20194;-64
2020/12/28 09:14:32;;;;;;;26.15;14.18;;;3.40;99.90;;;;;;5059340;28;20190;-65
2020/12/28 09:16:59;;;;;;;30.55;15.93;;;3.40;99.90;;;;;;5063369;28;20202;-64
2020/12/28 09:19:25;;;;;;;29.27;15.85;;;3.40;99.90;;;;;;5062858;28;20186;-64
2020/12/28 09:21:52;;;;;;;27.35;15.57;;;3.40;99.90;;;;;;5062826;28;20178;-64
2020/12/28 09:24:18;;;;;;;34.20;16.83;;;3.50;99.90;;;;;;5064160;28;20565;-64
2020/12/28 09:26:44;;;;;;;34.38;17.42;;;3.50;99.90;;;;;;5056256;28;20198;-64
2020/12/28 09:29:10;;;;;;;35.13;17.92;;;3.50;99.90;;;;;;5064089;28;20190;-64
2020/12/28 09:31:36;;;;;;;38.42;20.27;;;3.60;99.90;;;;;;5068503;28;20377;-64
2020/12/28 09:34:02;;;;;;;37.35;18.25;;;3.60;99.90;;;;;;5056945;28;20190;-64
2020/12/28 09:36:29;;;;;;;33.30;17.90;;;3.60;99.90;;;;;;5050926;28;20217;-64
2020/12/28 09:38:55;;;;;;;37.20;18.85;;;3.60;99.90;;;;;;5042254;28;20197;-63
2020/12/28 09:41:21;;;;;;;40.22;19.98;;;3.60;99.90;;;;;;5065046;28;20178;-63
2020/12/28 09:43:47;;;;;;;39.88;18.83;;;3.70;99.90;;;;;;5060342;28;20573;-63
2020/12/28 09:46:17;;;;;;;38.80;19.48;;;3.70;99.90;;;;;;5060534;28;20646;-63
2020/12/28 09:48:43;;;;;;;37.42;18.63;;;3.70;99.90;;;;;;5058694;28;20162;-64
2020/12/28 09:51:10;;;;;;;39.08;19.60;;;3.70;99.90;;;;;;5060268;28;20171;-63
2020/12/28 09:53:37;;;;;;;48.45;20.98;;;3.70;99.90;;;;;;5062267;28;20537;-63
2020/12/28 09:56:03;;;;;;;39.38;20.33;;;3.80;99.90;;;;;;5068179;28;20174;-63
2020/12/28 09:58:31;;;;;;;43.80;19.83;;;3.80;99.90;;;;;;5066239;28;20190;-63
2020/12/28 10:00:57;;;;;;;40.10;19.95;;;3.80;99.90;;;;;;5066968;28;20537;-61
2020/12/28 10:03:23;;;;;;;39.80;19.77;;;3.80;99.90;;;;;;5065508;28;20186;-61
2020/12/28 10:05:49;;;;;;;41.67;19.02;;;3.80;99.90;;;;;;5064134;28;20219;-61
2020/12/28 10:08:15;;;;;;;42.95;19.75;;;3.90;99.90;;;;;;5070390;28;20178;-61
2020/12/28 10:10:44;;;;;;;37.35;20.08;;;3.90;99.90;;;;;;5069276;28;20178;-64
2020/12/28 10:13:11;;;;;;;49.10;21.98;;;3.90;99.90;;;;;;5055967;28;20182;-61
2020/12/28 10:15:38;;;;;;;43.95;21.10;;;3.90;99.90;;;;;;5070899;28;20643;-61
2020/12/28 10:18:14;;;;;;;47.95;21.42;;;3.90;99.90;;;;;;5070037;28;20222;-60
2020/12/28 10:20:43;;;;;;;51.35;22.05;;;4.00;99.90;;;;;;5067039;28;20181;-61
2020/12/28 10:23:09;;;;;;;43.38;20.98;;;4.00;99.90;;;;;;5064709;28;20169;-60
2020/12/28 10:25:35;;;;;;;49.03;21.08;;;4.00;99.90;;;;;;5054713;28;20214;-61
2020/12/28 10:28:02;;;;;;;42.92;21.60;;;4.00;99.90;;;;;;5056198;28;20166;-60
2020/12/28 10:30:28;;;;;;;43.45;20.55;;;4.00;99.90;;;;;;5059406;28;20631;-61
2020/12/28 10:32:54;;;;;;;38.15;20.77;;;4.00;99.90;;;;;;5060359;28;20190;-61
2020/12/28 10:35:21;;;;;;;39.10;20.67;;;4.00;99.90;;;;;;5063623;28;20170;-61
2020/12/28 10:37:47;;;;;;;44.42;22.23;;;4.10;99.90;;;;;;5057029;28;20542;-61
2020/12/28 10:40:13;;;;;;;47.15;21.35;;;4.10;99.90;;;;;;5066652;28;20178;-61
2020/12/28 10:42:39;;;;;;;47.00;22.02;;;4.10;99.90;;;;;;5059892;28;20186;-61
2020/12/28 10:45:05;;;;;;;43.53;21.70;;;4.10;99.90;;;;;;5060479;28;20211;-61
2020/12/28 10:47:32;;;;;;;49.20;22.42;;;4.10;99.90;;;;;;5064233;28;20178;-60
2020/12/28 10:49:58;;;;;;;49.25;22.73;;;4.20;99.90;;;;;;5066026;28;20190;-61
2020/12/28 10:52:24;;;;;;;42.33;21.42;;;4.20;99.90;;;;;;5064690;28;20166;-60
2020/12/28 10:54:50;;;;;;;41.10;22.00;;;4.20;99.90;;;;;;5069102;28;20185;-60
2020/12/28 10:57:16;;;;;;;52.05;23.08;;;4.20;99.90;;;;;;5061984;28;20654;-62
2020/12/28 10:59:42;;;;;;;49.05;23.98;;;4.20;99.90;;;;;;5064369;28;20170;-61
2020/12/28 11:02:08;;;;;;;44.95;23.00;;;4.20;99.90;;;;;;5061696;28;20205;-61
2020/12/28 11:04:34;;;;;;;45.58;23.58;;;4.20;99.90;;;;;;5059715;28;20281;-60
2020/12/28 11:07:01;;;;;;;53.47;24.08;;;4.30;99.90;;;;;;5064455;28;20193;-61
2020/12/28 11:09:27;;;;;;;50.78;24.50;;;4.30;99.90;;;;;;5063914;28;20222;-66
2020/12/28 11:11:53;;;;;;;48.58;23.98;;;4.30;99.90;;;;;;5061135;28;20189;-61
2020/12/28 11:14:20;;;;;;;56.92;24.05;;;4.30;99.90;;;;;;5062253;28;20179;-61
2020/12/28 11:16:47;;;;;;;49.67;24.25;;;4.30;99.90;;;;;;5063409;28;20217;-61
2020/12/28 11:19:13;;;;;;;53.30;24.27;;;4.40;99.90;;;;;;5062368;28;20177;-61
2020/12/28 11:21:39;;;;;;;50.70;24.02;;;4.40;99.90;;;;;;5068364;28;20185;-61
2020/12/28 11:24:05;;;;;;;47.72;23.67;;;4.40;99.90;;;;;;5064993;28;20198;-61
2020/12/28 11:26:32;;;;;;;48.92;25.20;;;4.40;99.90;;;;;;5069603;28;20176;-61
2020/12/28 11:28:59;;;;;;;52.47;25.50;;;4.40;99.90;;;;;;5060872;28;20170;-61
2020/12/28 11:31:25;;;;;;;55.45;26.25;;;4.40;99.90;;;;;;5061415;28;20185;-61
2020/12/28 11:33:51;;;;;;;57.63;25.25;;;4.50;99.90;;;;;;5058511;28;20174;-61
2020/12/28 11:36:18;;;;;;;57.80;25.42;;;4.50;99.90;;;;;;5058452;28;20205;-61
2020/12/28 11:38:44;;;;;;;56.40;27.10;;;4.50;99.90;;;;;;5059775;28;20187;-64
2020/12/28 11:41:17;;;;;;;52.00;25.75;;;4.50;99.90;;;;;;5059973;28;20633;-61
2020/12/28 11:43:43;;;;;;;118.30;68.38;;;4.50;99.90;;;;;;5065792;28;20532;-61
2020/12/28 11:46:10;;;;;;;60.00;29.27;;;4.50;99.90;;;;;;5065633;28;20212;-61
2020/12/28 11:48:36;;;;;;;54.75;24.98;;;4.50;99.90;;;;;;5060709;28;20174;-61
2020/12/28 11:51:06;;;;;;;54.42;26.17;;;4.50;99.90;;;;;;5064213;28;20182;-61
2020/12/28 11:53:33;;;;;;;453.58;238.00;;;4.60;99.90;;;;;;5063788;28;20190;-61
2020/12/28 11:58:32;;;;;;;86.68;40.72;;;4.50;99.90;;;;;;5067234;28;20634;-64
2020/12/28 12:00:59;;;;;;;127.85;66.85;;;4.60;99.90;;;;;;5063101;28;20174;-62
2020/12/28 12:03:28;;;;;;;53.60;25.48;;;4.50;99.90;;;;;;5063249;28;20205;-61
2020/12/28 12:05:55;;;;;;;49.03;23.27;;;4.60;99.90;;;;;;5066409;28;20212;-61
2020/12/28 12:08:21;;;;;;;54.42;26.60;;;4.60;99.90;;;;;;5062586;28;20186;-61
2020/12/28 12:10:48;;;;;;;62.30;31.63;;;4.60;99.90;;;;;;5060535;28;20185;-61
2020/12/28 12:13:15;;;;;;;77.43;42.15;;;4.60;99.90;;;;;;5058899;28;20167;-61
2020/12/28 12:15:48;;;;;;;56.22;29.55;;;4.60;99.90;;;;;;5061403;28;20530;-61
2020/12/28 12:18:14;;;;;;;46.78;23.58;;;4.60;99.90;;;;;;5059545;28;20229;-61
2020/12/28 12:20:41;;;;;;;99.22;49.92;;;4.60;99.90;;;;;;5065476;28;20197;-61
2020/12/28 12:23:07;;;;;;;91.93;45.15;;;4.60;99.90;;;;;;5063633;28;20179;-61
2020/12/28 12:25:39;;;;;;;115.47;41.75;;;4.60;99.90;;;;;;5069590;28;20575;-60
2020/12/28 12:28:05;;;;;;;52.92;26.70;;;4.60;99.90;;;;;;5077105;28;20185;-61
2020/12/28 12:30:31;;;;;;;66.63;31.60;;;4.50;99.90;;;;;;5077501;28;20182;-61
2020/12/28 12:33:00;;;;;;;48.38;23.65;;;4.50;99.90;;;;;;5072591;28;20181;-61
2020/12/28 12:35:27;;;;;;;46.55;23.73;;;4.60;99.90;;;;;;5080134;28;20528;-61
2020/12/28 12:37:53;;;;;;;52.42;24.40;;;4.60;99.90;;;;;;5080865;28;20173;-61
2020/12/28 12:40:19;;;;;;;46.65;24.63;;;4.50;99.90;;;;;;5073580;28;20173;-62
2020/12/28 12:42:45;;;;;;;43.22;23.05;;;4.50;99.90;;;;;;5077820;28;20181;-61